createdAt,value
2023-03-19T00:00:11.302Z,26.90
2023-03-19T00:01:13.552Z,28.10
2023-03-19T00:02:18.473Z,29.13
2023-03-19T00:03:20.370Z,24.20
2023-03-19T00:04:24.221Z,26.95
2023-03-19T00:05:26.103Z,27.30
2023-03-19T00:06:28.968Z,24.55
2023-03-19T00:07:30.929Z,24.45
2023-03-19T00:08:33.671Z,24.10
2023-03-19T00:09:35.472Z,24.58
2023-03-19T00:10:40.135Z,23.55
2023-03-19T00:11:42.641Z,23.77
2023-03-19T00:12:45.691Z,21.33
2023-03-19T00:13:47.955Z,21.85
2023-03-19T00:14:50.858Z,21.58
2023-03-19T00:15:52.629Z,21.25
2023-03-19T00:16:56.320Z,22.70
2023-03-19T00:17:59.490Z,21.42
2023-03-19T00:19:02.213Z,21.90
2023-03-19T00:20:06.312Z,21.63
2023-03-19T00:21:08.298Z,21.55
2023-03-19T00:22:11.054Z,20.80
2023-03-19T00:23:13.233Z,21.80
2023-03-19T00:24:17.428Z,19.25
2023-03-19T00:25:19.180Z,20.77
2023-03-19T00:26:22.531Z,20.20
2023-03-19T00:27:26.246Z,20.95
2023-03-19T00:28:29.056Z,21.75
2023-03-19T00:29:31.052Z,20.63
2023-03-19T00:30:33.947Z,22.67
2023-03-19T00:31:35.865Z,22.30
2023-03-19T00:32:40.618Z,22.38
2023-03-19T00:33:43.889Z,23.77
2023-03-19T00:34:47.561Z,24.77
2023-03-19T00:35:50.092Z,33.70
2023-03-19T00:36:53.164Z,29.88
2023-03-19T00:37:55.417Z,29.00
2023-03-19T00:38:58.539Z,24.83
2023-03-19T00:40:00.276Z,29.70
2023-03-19T00:41:03.129Z,26.52
2023-03-19T00:42:07.329Z,25.05
2023-03-19T00:43:09.132Z,23.27
2023-03-19T00:44:11.850Z,20.70
2023-03-19T00:45:14.157Z,20.52
2023-03-19T00:46:16.971Z,20.90
2023-03-19T00:47:19.003Z,22.73
2023-03-19T00:48:22.526Z,21.35
2023-03-19T00:49:25.644Z,24.08
2023-03-19T00:50:28.620Z,26.27
2023-03-19T00:51:30.491Z,25.20
2023-03-19T00:52:33.335Z,23.75
2023-03-19T00:53:37.546Z,28.20
2023-03-19T00:54:40.502Z,25.55
2023-03-19T00:55:42.927Z,26.52
2023-03-19T00:56:45.698Z,27.30
2023-03-19T00:57:47.572Z,26.40
2023-03-19T00:58:50.624Z,25.88
2023-03-19T00:59:52.494Z,25.70
2023-03-19T01:00:55.761Z,29.90
2023-03-19T01:01:58.566Z,35.08
2023-03-19T01:03:00.703Z,32.88
2023-03-19T01:04:06.286Z,31.15
2023-03-19T01:05:10.136Z,26.13
2023-03-19T01:06:13.287Z,28.70
2023-03-19T01:07:15.610Z,30.95
2023-03-19T01:08:19.378Z,34.08
2023-03-19T01:09:22.064Z,30.73
2023-03-19T01:10:26.007Z,33.40
2023-03-19T01:11:27.781Z,34.10
2023-03-19T01:12:30.515Z,30.50
2023-03-19T01:13:32.437Z,29.33
2023-03-19T01:14:36.404Z,30.98
2023-03-19T01:15:38.986Z,31.30
2023-03-19T01:16:42.630Z,31.15
2023-03-19T01:17:44.677Z,32.20
2023-03-19T01:18:48.085Z,33.72
2023-03-19T01:19:50.018Z,31.70
2023-03-19T01:20:54.128Z,30.98
2023-03-19T01:21:56.137Z,32.28
2023-03-19T01:22:59.897Z,27.63
2023-03-19T01:24:01.837Z,32.70
2023-03-19T01:25:05.825Z,32.40
2023-03-19T01:26:08.284Z,32.80
2023-03-19T01:27:11.917Z,33.95
2023-03-19T01:28:13.779Z,33.88
2023-03-19T01:29:17.245Z,32.20
2023-03-19T01:30:19.504Z,36.10
2023-03-19T01:31:45.742Z,33.42
2023-03-19T01:33:06.471Z,33.25
2023-03-19T01:34:17.423Z,43.30
2023-03-19T01:35:25.767Z,38.30
2023-03-19T01:36:30.410Z,36.40
2023-03-19T01:37:36.163Z,34.78
2023-03-19T01:38:39.530Z,40.22
2023-03-19T01:39:49.613Z,35.05
2023-03-19T01:40:53.347Z,33.78
2023-03-19T01:41:55.491Z,34.53
2023-03-19T01:43:18.452Z,34.00
2023-03-19T01:44:42.018Z,33.33
2023-03-19T01:46:02.438Z,34.70
2023-03-19T01:47:30.129Z,30.67
2023-03-19T01:48:47.084Z,29.17
2023-03-19T01:49:53.422Z,32.25
2023-03-19T01:50:57.736Z,29.35
2023-03-19T01:52:23.901Z,29.27
2023-03-19T01:53:48.520Z,28.98
2023-03-19T01:55:05.569Z,27.83
2023-03-19T01:56:23.815Z,30.27
2023-03-19T01:57:32.612Z,30.85
2023-03-19T01:58:50.883Z,29.08
2023-03-19T02:00:14.380Z,27.88
2023-03-19T02:01:19.184Z,32.15
2023-03-19T02:02:29.096Z,29.00
2023-03-19T02:03:31.887Z,32.85
2023-03-19T02:04:44.695Z,29.60
2023-03-19T02:05:47.174Z,30.90
2023-03-19T02:06:50.513Z,31.88
2023-03-19T02:07:56.737Z,31.00
2023-03-19T02:09:00.377Z,31.10
2023-03-19T02:10:04.943Z,31.48
2023-03-19T02:11:07.962Z,31.42
2023-03-19T02:12:10.758Z,30.80
2023-03-19T02:13:13.530Z,29.92
2023-03-19T02:14:16.103Z,29.80
2023-03-19T02:15:19.538Z,31.15
2023-03-19T02:16:22.407Z,32.50
2023-03-19T02:17:26.849Z,30.50
2023-03-19T02:18:29.615Z,28.45
2023-03-19T02:19:35.943Z,29.48
2023-03-19T02:20:46.531Z,28.85
2023-03-19T02:21:50.217Z,30.67
2023-03-19T02:23:05.680Z,29.63
2023-03-19T02:24:13.454Z,30.58
2023-03-19T02:25:29.716Z,28.30
2023-03-19T02:26:32.954Z,31.02
2023-03-19T02:27:38.891Z,28.90
2023-03-19T02:28:43.923Z,30.00
2023-03-19T02:29:49.359Z,30.85
2023-03-19T02:30:52.321Z,30.50
2023-03-19T02:31:55.208Z,29.88
2023-03-19T02:32:57.232Z,29.15
2023-03-19T02:34:01.029Z,28.77
2023-03-19T02:35:02.912Z,29.35
2023-03-19T02:36:08.924Z,28.98
2023-03-19T02:37:15.125Z,30.85
2023-03-19T02:38:18.413Z,29.52
2023-03-19T02:39:23.334Z,30.50
2023-03-19T02:40:28.341Z,28.00
2023-03-19T02:41:31.210Z,28.10
2023-03-19T02:42:35.694Z,27.48
2023-03-19T02:43:39.307Z,28.75
2023-03-19T02:44:42.092Z,29.45
2023-03-19T02:45:44.860Z,28.92
2023-03-19T02:46:46.875Z,28.73
2023-03-19T02:47:49.698Z,28.40
2023-03-19T02:48:52.566Z,29.75
2023-03-19T02:49:55.507Z,28.40
2023-03-19T02:50:58.213Z,29.38
2023-03-19T02:52:01.877Z,30.50
2023-03-19T02:53:03.713Z,27.73
2023-03-19T02:54:06.708Z,27.52
2023-03-19T02:55:09.495Z,29.48
2023-03-19T02:56:12.590Z,29.65
2023-03-19T02:57:16.551Z,29.83
2023-03-19T02:58:20.901Z,29.17
2023-03-19T02:59:22.946Z,29.10
2023-03-19T03:00:26.390Z,30.65
2023-03-19T03:01:28.458Z,31.30
2023-03-19T03:02:31.834Z,31.83
2023-03-19T03:03:34.105Z,32.05
2023-03-19T03:04:38.348Z,30.80
2023-03-19T03:05:40.610Z,31.05
2023-03-19T03:06:43.637Z,33.58
2023-03-19T03:07:45.482Z,28.45
2023-03-19T03:08:48.392Z,30.75
2023-03-19T03:09:50.150Z,28.65
2023-03-19T03:10:53.015Z,31.30
2023-03-19T03:11:54.942Z,32.05
2023-03-19T03:12:57.876Z,31.33
2023-03-19T03:14:01.054Z,30.08
2023-03-19T03:15:04.388Z,29.67
2023-03-19T03:16:06.797Z,30.27
2023-03-19T03:17:09.763Z,31.77
2023-03-19T03:18:11.610Z,31.27
2023-03-19T03:19:14.397Z,31.40
2023-03-19T03:20:17.682Z,32.10
2023-03-19T03:21:21.522Z,32.88
2023-03-19T03:22:23.372Z,34.05
2023-03-19T03:23:26.452Z,32.22
2023-03-19T03:24:28.806Z,30.63
2023-03-19T03:25:31.691Z,32.42
2023-03-19T03:26:34.760Z,34.90
2023-03-19T03:27:38.776Z,32.22
2023-03-19T03:28:41.551Z,31.83
2023-03-19T03:29:46.040Z,30.85
2023-03-19T03:30:49.052Z,31.10
2023-03-19T03:31:51.954Z,32.53
2023-03-19T03:32:53.822Z,32.55
2023-03-19T03:33:57.481Z,32.83
2023-03-19T03:34:59.264Z,30.48
2023-03-19T03:36:01.993Z,32.30
2023-03-19T03:37:03.860Z,29.17
2023-03-19T03:38:06.735Z,29.23
2023-03-19T03:39:08.972Z,30.25
2023-03-19T03:40:14.276Z,28.20
2023-03-19T03:41:16.182Z,29.02
2023-03-19T03:42:19.096Z,29.17
2023-03-19T03:43:21.530Z,28.45
2023-03-19T03:44:25.205Z,27.80
2023-03-19T03:45:28.397Z,29.38
2023-03-19T03:46:31.235Z,26.02
2023-03-19T03:47:33.153Z,28.85
2023-03-19T03:48:36.005Z,29.05
2023-03-19T03:49:38.516Z,24.90
2023-03-19T03:50:41.519Z,27.95
2023-03-19T03:51:46.807Z,27.40
2023-03-19T03:52:50.016Z,28.00
2023-03-19T03:53:51.913Z,27.60
2023-03-19T03:54:54.664Z,28.25
2023-03-19T03:55:56.488Z,27.52
2023-03-19T03:57:03.490Z,27.40
2023-03-19T03:58:06.544Z,27.25
2023-03-19T03:59:09.557Z,26.85
2023-03-19T04:00:12.807Z,27.05
2023-03-19T04:01:21.806Z,25.05
2023-03-19T04:02:29.111Z,27.45
2023-03-19T04:03:32.220Z,23.58
2023-03-19T04:04:34.330Z,25.85
2023-03-19T04:05:37.910Z,25.85
2023-03-19T04:06:40.707Z,27.08
2023-03-19T04:08:03.852Z,27.30
2023-03-19T04:09:07.869Z,26.55
2023-03-19T04:10:12.613Z,25.63
2023-03-19T04:11:15.293Z,25.45
2023-03-19T04:12:19.491Z,26.38
2023-03-19T04:13:22.639Z,23.95
2023-03-19T04:14:26.250Z,24.55
2023-03-19T04:15:28.534Z,23.77
2023-03-19T04:16:34.677Z,25.85
2023-03-19T04:17:37.156Z,24.00
2023-03-19T04:18:40.243Z,24.98
2023-03-19T04:19:43.606Z,23.13
2023-03-19T04:20:46.419Z,24.00
2023-03-19T04:21:49.183Z,22.45
2023-03-19T04:22:52.194Z,23.67
2023-03-19T04:23:54.127Z,22.75
2023-03-19T04:24:57.018Z,22.70
2023-03-19T04:25:59.417Z,22.42
2023-03-19T04:27:02.485Z,22.83
2023-03-19T04:28:05.059Z,22.02
2023-03-19T04:29:08.477Z,22.55
2023-03-19T04:30:11.889Z,22.13
2023-03-19T04:31:15.370Z,21.50
2023-03-19T04:32:21.063Z,21.85
2023-03-19T04:33:24.220Z,21.67
2023-03-19T04:34:26.123Z,21.10
2023-03-19T04:35:28.913Z,20.50
2023-03-19T04:36:31.724Z,22.10
2023-03-19T04:37:33.715Z,20.63
2023-03-19T04:38:36.656Z,19.00
2023-03-19T04:39:38.798Z,20.20
2023-03-19T04:40:43.088Z,22.13
2023-03-19T04:41:45.299Z,21.40
2023-03-19T04:43:14.517Z,19.67
2023-03-19T04:44:17.708Z,20.88
2023-03-19T04:45:20.875Z,20.13
2023-03-19T04:46:23.019Z,19.98
2023-03-19T04:47:27.238Z,19.55
2023-03-19T04:48:33.756Z,20.13
2023-03-19T04:49:36.804Z,20.40
2023-03-19T04:50:39.455Z,20.40
2023-03-19T04:51:42.769Z,19.58
2023-03-19T04:52:44.632Z,18.55
2023-03-19T04:53:49.247Z,19.63
2023-03-19T04:54:51.350Z,19.60
2023-03-19T04:55:54.439Z,18.25
2023-03-19T04:56:56.243Z,18.67
2023-03-19T04:58:02.000Z,20.40
2023-03-19T04:59:06.786Z,19.15
2023-03-19T05:00:09.819Z,19.67
2023-03-19T05:01:15.596Z,19.40
2023-03-19T05:02:35.640Z,18.90
2023-03-19T05:03:38.094Z,18.58
2023-03-19T05:04:41.101Z,20.17
2023-03-19T05:05:46.533Z,18.85
2023-03-19T05:06:50.232Z,20.80
2023-03-19T05:07:51.999Z,19.77
2023-03-19T05:08:54.949Z,19.95
2023-03-19T05:09:58.764Z,19.83
2023-03-19T05:11:01.551Z,18.38
2023-03-19T05:12:10.132Z,21.10
2023-03-19T05:13:21.404Z,19.60
2023-03-19T05:14:25.777Z,19.63
2023-03-19T05:15:40.690Z,18.52
2023-03-19T05:16:42.895Z,20.52
2023-03-19T05:17:47.008Z,20.23
2023-03-19T05:18:53.608Z,19.17
2023-03-19T05:19:55.826Z,18.63
2023-03-19T05:20:58.682Z,18.42
2023-03-19T05:22:01.689Z,18.85
2023-03-19T05:23:05.131Z,19.13
2023-03-19T05:24:14.713Z,17.98
2023-03-19T05:25:17.880Z,19.77
2023-03-19T05:26:21.731Z,19.35
2023-03-19T05:27:42.011Z,21.35
2023-03-19T05:28:48.307Z,20.17
2023-03-19T05:29:53.916Z,22.85
2023-03-19T05:31:12.920Z,21.88
2023-03-19T05:32:20.559Z,22.90
2023-03-19T05:33:25.235Z,23.77
2023-03-19T05:34:28.864Z,22.08
2023-03-19T05:35:32.375Z,23.00
2023-03-19T05:36:36.130Z,21.00
2023-03-19T05:37:47.873Z,22.08
2023-03-19T05:38:49.745Z,22.60
2023-03-19T05:40:00.208Z,22.88
2023-03-19T05:41:04.887Z,22.13
2023-03-19T05:42:16.705Z,23.95
2023-03-19T05:43:19.020Z,24.15
2023-03-19T05:44:22.310Z,24.73
2023-03-19T05:45:33.497Z,23.67
2023-03-19T05:46:44.264Z,23.75
2023-03-19T05:47:47.845Z,22.90
2023-03-19T05:48:52.697Z,23.00
2023-03-19T05:49:54.796Z,22.85
2023-03-19T05:50:59.306Z,23.17
2023-03-19T05:52:06.161Z,24.02
2023-03-19T05:53:09.701Z,23.35
2023-03-19T05:54:15.972Z,21.90
2023-03-19T05:55:38.695Z,24.02
2023-03-19T05:56:43.777Z,24.20
2023-03-19T05:58:04.976Z,23.33
2023-03-19T05:59:07.147Z,23.35
2023-03-19T06:00:16.084Z,22.55
2023-03-19T06:01:17.940Z,22.17
2023-03-19T06:02:21.187Z,21.95
2023-03-19T06:03:28.799Z,20.40
2023-03-19T06:04:35.691Z,19.95
2023-03-19T06:05:38.975Z,18.80
2023-03-19T06:06:55.163Z,19.13
2023-03-19T06:07:57.211Z,17.88
2023-03-19T06:09:11.406Z,18.13
2023-03-19T06:10:16.829Z,18.80
2023-03-19T06:11:19.687Z,17.30
2023-03-19T06:12:28.994Z,16.73
2023-03-19T06:13:50.521Z,16.17
2023-03-19T06:14:53.382Z,16.55
2023-03-19T06:16:31.697Z,16.10
2023-03-19T06:17:34.516Z,16.73
2023-03-19T06:18:43.235Z,14.93
2023-03-19T06:19:48.792Z,14.88
2023-03-19T06:20:52.938Z,15.52
2023-03-19T06:21:54.966Z,15.20
2023-03-19T06:22:58.025Z,18.67
2023-03-19T06:23:59.901Z,17.90
2023-03-19T06:25:08.625Z,17.98
2023-03-19T06:26:12.496Z,19.10
2023-03-19T06:27:24.538Z,20.15
2023-03-19T06:28:29.974Z,20.13
2023-03-19T06:29:32.747Z,19.40
2023-03-19T06:30:47.509Z,20.48
2023-03-19T06:32:08.348Z,19.33
2023-03-19T06:33:15.665Z,20.55
2023-03-19T06:34:18.201Z,19.85
2023-03-19T06:35:22.715Z,20.13
2023-03-19T06:36:26.074Z,18.98
2023-03-19T06:37:29.134Z,19.90
2023-03-19T06:38:31.396Z,20.88
2023-03-19T06:39:34.975Z,20.08
2023-03-19T06:40:36.763Z,19.60
2023-03-19T06:41:39.702Z,20.05
2023-03-19T06:42:49.422Z,19.95
2023-03-19T06:43:53.269Z,19.48
2023-03-19T06:44:55.469Z,18.33
2023-03-19T06:45:59.634Z,18.38
2023-03-19T06:47:01.563Z,18.80
2023-03-19T06:48:05.026Z,18.50
2023-03-19T06:49:07.060Z,17.90
2023-03-19T06:50:11.090Z,17.63
2023-03-19T06:51:14.282Z,17.50
2023-03-19T06:52:17.121Z,14.85
2023-03-19T06:53:18.910Z,17.33
2023-03-19T06:54:21.755Z,15.27
2023-03-19T06:55:24.500Z,13.55
2023-03-19T06:56:27.091Z,13.35
2023-03-19T06:57:29.846Z,12.85
2023-03-19T06:58:31.945Z,13.30
2023-03-19T06:59:36.394Z,12.40
2023-03-19T07:00:38.205Z,11.70
2023-03-19T07:01:42.079Z,12.70
2023-03-19T07:02:43.846Z,11.85
2023-03-19T07:03:46.657Z,12.18
2023-03-19T07:04:50.600Z,11.80
2023-03-19T07:05:53.352Z,12.32
2023-03-19T07:06:56.534Z,11.65
2023-03-19T07:08:01.207Z,11.60
2023-03-19T07:09:03.359Z,11.45
2023-03-19T07:10:07.539Z,10.27
2023-03-19T07:11:10.901Z,10.75
2023-03-19T07:12:14.067Z,10.07
2023-03-19T07:13:16.858Z,10.30
2023-03-19T07:14:19.123Z,10.48
2023-03-19T07:15:22.370Z,11.25
2023-03-19T07:16:24.193Z,10.63
2023-03-19T07:17:27.109Z,10.25
2023-03-19T07:18:29.005Z,9.75
2023-03-19T07:19:31.821Z,9.90
2023-03-19T07:20:35.677Z,9.40
2023-03-19T07:21:37.905Z,9.98
2023-03-19T07:22:42.133Z,10.13
2023-03-19T07:23:46.959Z,10.90
2023-03-19T07:24:49.756Z,9.65
2023-03-19T07:25:52.055Z,9.68
2023-03-19T07:26:54.904Z,9.30
2023-03-19T07:27:56.761Z,8.73
2023-03-19T07:28:59.591Z,8.65
2023-03-19T07:30:01.419Z,9.88
2023-03-19T07:31:04.843Z,9.80
2023-03-19T07:32:07.682Z,8.57
2023-03-19T07:33:12.322Z,8.98
2023-03-19T07:34:14.220Z,8.77
2023-03-19T07:35:17.277Z,9.25
2023-03-19T07:36:19.602Z,8.80
2023-03-19T07:37:22.664Z,7.53
2023-03-19T07:38:25.961Z,7.60
2023-03-19T07:39:28.832Z,8.40
2023-03-19T07:40:31.748Z,7.65
2023-03-19T07:41:34.731Z,7.03
2023-03-19T07:42:36.928Z,8.32
2023-03-19T07:43:39.839Z,8.30
2023-03-19T07:44:41.641Z,8.10
2023-03-19T07:45:44.538Z,7.32
2023-03-19T07:46:47.496Z,7.88
2023-03-19T07:47:51.514Z,8.45
2023-03-19T07:48:53.434Z,7.38
2023-03-19T07:49:56.256Z,8.63
2023-03-19T07:50:58.696Z,8.77
2023-03-19T07:52:02.736Z,8.35
2023-03-19T07:53:05.575Z,7.50
2023-03-19T07:54:09.666Z,7.30
2023-03-19T07:55:12.958Z,7.05
2023-03-19T07:56:15.949Z,7.88
2023-03-19T07:57:18.538Z,7.32
2023-03-19T07:58:21.949Z,7.80
2023-03-19T07:59:23.712Z,7.40
2023-03-19T08:00:27.337Z,7.00
2023-03-19T08:01:29.159Z,7.80
2023-03-19T08:02:32.058Z,7.35
2023-03-19T08:03:34.997Z,7.93
2023-03-19T08:04:38.116Z,7.82
2023-03-19T08:05:41.316Z,7.40
2023-03-19T08:06:43.124Z,7.65
2023-03-19T08:07:48.538Z,7.28
2023-03-19T08:08:51.398Z,7.40
2023-03-19T08:09:54.500Z,7.63
2023-03-19T08:10:57.649Z,7.20
2023-03-19T08:12:00.443Z,7.32
2023-03-19T08:13:05.066Z,7.57
2023-03-19T08:14:07.254Z,7.07
2023-03-19T08:15:11.907Z,6.85
2023-03-19T08:16:14.924Z,7.10
2023-03-19T08:17:17.057Z,5.78
2023-03-19T08:18:20.362Z,5.80
2023-03-19T08:19:22.842Z,5.20
2023-03-19T08:20:26.155Z,5.03
2023-03-19T08:21:28.070Z,4.05
2023-03-19T08:22:30.905Z,4.47
2023-03-19T08:23:35.125Z,4.53
2023-03-19T08:24:36.930Z,4.30
2023-03-19T08:25:41.318Z,4.80
2023-03-19T08:26:44.207Z,4.60
2023-03-19T08:27:46.025Z,4.85
2023-03-19T08:28:50.385Z,4.75
2023-03-19T08:29:52.221Z,4.85
2023-03-19T08:30:55.785Z,3.95
2023-03-19T08:31:58.664Z,4.45
2023-03-19T08:33:01.716Z,4.37
2023-03-19T08:34:05.193Z,3.77
2023-03-19T08:35:08.918Z,4.20
2023-03-19T08:36:12.595Z,4.30
2023-03-19T08:37:15.684Z,4.22
2023-03-19T08:38:19.144Z,4.27
2023-03-19T08:39:21.167Z,4.55
2023-03-19T08:40:24.468Z,4.20
2023-03-19T08:41:27.660Z,4.90
2023-03-19T08:42:30.578Z,4.72
2023-03-19T08:43:33.380Z,4.60
2023-03-19T08:44:36.489Z,4.97
2023-03-19T08:45:40.664Z,5.43
2023-03-19T08:46:42.886Z,3.92
2023-03-19T08:47:45.873Z,3.85
2023-03-19T08:48:47.901Z,4.93
2023-03-19T08:49:52.970Z,4.70
2023-03-19T08:50:56.206Z,4.07
2023-03-19T08:51:58.562Z,5.07
2023-03-19T08:53:01.422Z,4.60
2023-03-19T08:54:04.666Z,5.28
2023-03-19T08:55:07.666Z,4.57
2023-03-19T08:56:10.545Z,4.15
2023-03-19T08:57:14.675Z,4.38
2023-03-19T08:58:17.852Z,4.50
2023-03-19T08:59:20.689Z,4.25
2023-03-19T09:00:23.917Z,4.93
2023-03-19T09:01:26.428Z,4.68
2023-03-19T09:02:29.644Z,4.35
2023-03-19T09:03:32.241Z,4.35
2023-03-19T09:04:38.968Z,4.55
2023-03-19T09:05:41.856Z,4.07
2023-03-19T09:06:45.096Z,4.13
2023-03-19T09:07:47.939Z,4.27
2023-03-19T09:08:49.735Z,4.13
2023-03-19T09:09:52.539Z,5.93
2023-03-19T09:10:56.541Z,4.40
2023-03-19T09:11:58.349Z,4.10
2023-03-19T09:13:02.720Z,4.00
2023-03-19T09:14:04.547Z,4.57
2023-03-19T09:15:08.350Z,4.80
2023-03-19T09:16:10.602Z,4.50
2023-03-19T09:17:15.450Z,4.23
2023-03-19T09:18:17.316Z,4.47
2023-03-19T09:19:20.074Z,4.20
2023-03-19T09:20:22.451Z,5.25
2023-03-19T09:21:25.365Z,5.07
2023-03-19T09:22:27.290Z,5.78
2023-03-19T09:23:30.749Z,5.40
2023-03-19T09:24:33.480Z,4.75
2023-03-19T09:25:35.652Z,4.65
2023-03-19T09:26:38.656Z,4.30
2023-03-19T09:27:40.715Z,4.30
2023-03-19T09:28:44.989Z,3.97
2023-03-19T09:29:48.037Z,4.35
2023-03-19T09:30:52.417Z,4.38
2023-03-19T09:31:54.237Z,4.18
2023-03-19T09:32:57.137Z,3.53
2023-03-19T09:33:59.083Z,4.28
2023-03-19T09:35:01.936Z,4.10
2023-03-19T09:36:05.692Z,4.28
2023-03-19T09:37:08.602Z,4.60
2023-03-19T09:38:10.380Z,4.07
2023-03-19T09:39:13.211Z,3.85
2023-03-19T09:40:21.703Z,4.25
2023-03-19T09:41:30.433Z,5.15
2023-03-19T09:42:51.336Z,3.80
2023-03-19T09:44:00.720Z,3.80
2023-03-19T09:45:03.733Z,3.65
2023-03-19T09:46:11.383Z,4.43
2023-03-19T09:47:25.842Z,3.85
2023-03-19T09:48:34.421Z,3.70
2023-03-19T09:49:40.027Z,3.67
2023-03-19T09:50:42.583Z,3.90
2023-03-19T09:51:48.346Z,4.28
2023-03-19T09:52:54.012Z,4.22
2023-03-19T09:53:58.895Z,3.80
2023-03-19T09:55:10.829Z,3.70
2023-03-19T09:56:16.406Z,3.92
2023-03-19T09:57:19.850Z,3.92
2023-03-19T09:58:22.984Z,4.07
2023-03-19T09:59:28.620Z,4.15
2023-03-19T10:00:33.545Z,3.88
2023-03-19T10:01:38.202Z,3.85
2023-03-19T10:02:43.190Z,4.40
2023-03-19T10:04:00.718Z,4.22
2023-03-19T10:05:11.663Z,3.72
2023-03-19T10:06:26.085Z,4.25
2023-03-19T10:07:39.857Z,3.50
2023-03-19T10:09:05.079Z,3.95
2023-03-19T10:10:21.907Z,3.97
2023-03-19T10:11:39.269Z,4.00
2023-03-19T10:12:51.053Z,4.18
2023-03-19T10:14:00.529Z,5.15
2023-03-19T10:15:19.697Z,4.25
2023-03-19T10:16:23.101Z,3.83
2023-03-19T10:17:28.804Z,4.53
2023-03-19T10:18:34.604Z,4.15
2023-03-19T10:19:41.716Z,4.15
2023-03-19T10:20:48.215Z,4.05
2023-03-19T10:21:52.450Z,3.97
2023-03-19T10:23:01.601Z,3.83
2023-03-19T10:24:06.584Z,3.90
2023-03-19T10:25:11.872Z,4.00
2023-03-19T10:26:17.918Z,4.30
2023-03-19T10:27:22.849Z,3.92
2023-03-19T10:28:27.698Z,3.58
2023-03-19T10:29:30.600Z,4.30
2023-03-19T10:30:34.172Z,4.07
2023-03-19T10:31:44.943Z,4.30
2023-03-19T10:32:55.289Z,4.10
2023-03-19T10:34:07.469Z,4.60
2023-03-19T10:35:17.914Z,3.85
2023-03-19T10:36:21.835Z,4.45
2023-03-19T10:37:26.592Z,4.07
2023-03-19T10:38:28.637Z,4.20
2023-03-19T10:39:34.270Z,4.22
2023-03-19T10:40:44.882Z,4.32
2023-03-19T10:41:51.101Z,4.45
2023-03-19T10:43:14.627Z,4.53
2023-03-19T10:44:25.921Z,4.65
2023-03-19T10:45:30.163Z,3.90
2023-03-19T10:46:39.717Z,4.23
2023-03-19T10:47:44.327Z,5.20
2023-03-19T10:48:46.678Z,4.20
2023-03-19T10:49:51.155Z,4.37
2023-03-19T10:50:58.069Z,4.10
2023-03-19T10:52:00.856Z,4.10
2023-03-19T10:53:06.884Z,4.53
2023-03-19T10:54:21.096Z,4.30
2023-03-19T10:55:26.346Z,4.30
2023-03-19T10:56:30.744Z,3.87
2023-03-19T10:57:33.450Z,4.00
2023-03-19T10:58:37.412Z,4.60
2023-03-19T10:59:39.295Z,4.60
2023-03-19T11:00:42.427Z,4.83
2023-03-19T11:01:45.583Z,5.30
2023-03-19T11:02:49.898Z,5.07
2023-03-19T11:03:53.078Z,4.77
2023-03-19T11:05:08.754Z,4.77
2023-03-19T11:06:20.573Z,4.90
2023-03-19T11:07:26.499Z,5.23
2023-03-19T11:08:35.570Z,5.23
2023-03-19T11:09:41.771Z,4.83
2023-03-19T11:10:46.477Z,5.43
2023-03-19T11:11:51.199Z,5.10
2023-03-19T11:12:55.401Z,5.57
2023-03-19T11:13:58.288Z,4.90
2023-03-19T11:15:03.731Z,5.20
2023-03-19T11:16:06.858Z,5.57
2023-03-19T11:17:19.542Z,5.33
2023-03-19T11:18:24.175Z,5.07
2023-03-19T11:19:28.200Z,5.27
2023-03-19T11:20:51.792Z,5.67
2023-03-19T11:22:00.341Z,5.43
2023-03-19T11:23:07.671Z,4.90
2023-03-19T11:24:12.099Z,5.13
2023-03-19T11:25:20.633Z,4.70
2023-03-19T11:26:24.482Z,5.27
2023-03-19T11:27:31.979Z,5.57
2023-03-19T11:28:38.529Z,5.43
2023-03-19T11:29:42.412Z,5.50
2023-03-19T11:30:53.859Z,5.23
2023-03-19T11:32:18.774Z,5.27
2023-03-19T11:33:49.071Z,5.40
2023-03-19T11:34:55.170Z,5.20
2023-03-19T11:36:01.798Z,4.73
2023-03-19T11:37:12.280Z,5.33
2023-03-19T11:38:18.627Z,4.40
2023-03-19T11:39:28.546Z,5.87
2023-03-19T11:40:37.431Z,5.80
2023-03-19T11:41:52.650Z,5.20
2023-03-19T11:43:05.227Z,5.80
2023-03-19T11:44:11.775Z,5.50
2023-03-19T11:45:19.261Z,5.77
2023-03-19T11:46:34.470Z,5.57
2023-03-19T11:47:43.727Z,5.50
2023-03-19T11:49:04.948Z,5.50
2023-03-19T11:50:19.315Z,4.77
2023-03-19T11:51:24.767Z,4.93
2023-03-19T11:52:32.646Z,4.83
2023-03-19T11:53:39.127Z,5.27
2023-03-19T11:54:47.825Z,5.37
2023-03-19T11:55:58.616Z,4.80
2023-03-19T11:57:02.735Z,5.63
2023-03-19T11:58:29.791Z,5.20
2023-03-19T11:59:45.019Z,5.80
2023-03-19T12:00:47.889Z,5.13
2023-03-19T12:02:03.363Z,5.37
2023-03-19T12:03:19.686Z,5.33
2023-03-19T12:04:43.860Z,5.33
2023-03-19T12:05:50.053Z,5.33
2023-03-19T12:06:58.230Z,5.10
2023-03-19T12:08:07.669Z,5.43
2023-03-19T12:09:17.884Z,4.90
2023-03-19T12:10:30.124Z,5.40
2023-03-19T12:11:38.224Z,4.93
2023-03-19T12:12:43.895Z,5.23
2023-03-19T12:14:03.356Z,5.70
2023-03-19T12:15:14.345Z,5.30
2023-03-19T12:16:22.777Z,5.77
2023-03-19T12:17:37.614Z,5.57
2023-03-19T12:18:49.413Z,6.10
2023-03-19T12:20:06.541Z,5.63
2023-03-19T12:21:13.645Z,5.80
2023-03-19T12:22:23.595Z,5.93
2023-03-19T12:23:35.849Z,5.97
2023-03-19T12:24:48.060Z,5.60
2023-03-19T12:26:04.541Z,5.80
2023-03-19T12:27:19.185Z,5.70
2023-03-19T12:28:24.070Z,5.00
2023-03-19T12:29:36.299Z,5.57
2023-03-19T12:30:39.908Z,5.50
2023-03-19T12:32:09.934Z,6.03
2023-03-19T12:33:23.523Z,5.43
2023-03-19T12:34:30.472Z,5.33
2023-03-19T12:35:35.448Z,5.03
2023-03-19T12:36:43.367Z,5.50
2023-03-19T12:38:18.842Z,5.23
2023-03-19T12:39:24.507Z,5.13
2023-03-19T12:40:30.893Z,5.50
2023-03-19T12:41:35.575Z,5.00
2023-03-19T12:42:40.944Z,5.30
2023-03-19T12:43:49.386Z,4.90
2023-03-19T12:44:55.130Z,5.37
2023-03-19T12:46:03.406Z,4.77
2023-03-19T12:47:07.728Z,5.07
2023-03-19T12:48:13.018Z,4.43
2023-03-19T12:49:17.138Z,4.90
2023-03-19T12:50:21.564Z,4.93
2023-03-19T12:51:29.858Z,4.77
2023-03-19T12:52:34.896Z,5.30
2023-03-19T12:53:46.170Z,5.27
2023-03-19T12:54:53.523Z,5.53
2023-03-19T12:55:59.131Z,5.10
2023-03-19T12:57:04.925Z,5.57
2023-03-19T12:58:14.157Z,4.90
2023-03-19T12:59:25.300Z,4.30
2023-03-19T13:00:31.440Z,5.37
2023-03-19T13:01:36.344Z,5.20
2023-03-19T13:02:43.162Z,4.63
2023-03-19T13:03:51.341Z,4.90
2023-03-19T13:04:56.831Z,4.93
2023-03-19T13:06:03.153Z,5.30
2023-03-19T13:07:09.965Z,4.87
2023-03-19T13:08:16.844Z,5.60
2023-03-19T13:09:28.949Z,5.67
2023-03-19T13:10:31.380Z,5.30
2023-03-19T13:11:41.484Z,5.30
2023-03-19T13:12:45.852Z,5.73
2023-03-19T13:13:51.468Z,5.57
2023-03-19T13:14:59.808Z,4.63
2023-03-19T13:16:05.012Z,4.63
2023-03-19T13:17:16.267Z,4.77
2023-03-19T13:18:24.862Z,5.30
2023-03-19T13:19:32.743Z,5.20
2023-03-19T13:20:47.689Z,5.00
2023-03-19T13:21:52.970Z,4.80
2023-03-19T13:23:00.790Z,4.73
2023-03-19T13:24:09.651Z,5.50
2023-03-19T13:25:16.223Z,4.80
2023-03-19T13:26:18.674Z,5.00
2023-03-19T13:27:23.650Z,4.53
2023-03-19T13:28:29.954Z,4.53
2023-03-19T13:29:35.652Z,5.00
2023-03-19T13:30:39.573Z,4.70
2023-03-19T13:31:43.250Z,5.17
2023-03-19T13:32:49.262Z,4.70
2023-03-19T13:33:53.792Z,4.80
2023-03-19T13:35:10.893Z,4.50
2023-03-19T13:36:15.548Z,5.00
2023-03-19T13:37:18.804Z,4.90
2023-03-19T13:38:26.329Z,3.90
2023-03-19T13:39:30.033Z,6.63
2023-03-19T13:40:54.371Z,4.93
2023-03-19T13:42:25.573Z,4.93
2023-03-19T13:43:52.161Z,5.23
2023-03-19T13:44:57.210Z,5.23
2023-03-19T13:46:04.553Z,4.70
2023-03-19T13:47:39.044Z,4.50
2023-03-19T13:48:49.905Z,4.70
2023-03-19T13:50:23.432Z,4.77
2023-03-19T13:51:30.701Z,4.80
2023-03-19T13:53:13.191Z,5.03
2023-03-19T13:54:20.146Z,4.97
2023-03-19T13:55:33.571Z,4.93
2023-03-19T13:56:58.506Z,4.50
2023-03-19T13:58:16.621Z,5.03
2023-03-19T13:59:23.868Z,4.90
2023-03-19T14:01:00.422Z,4.70
2023-03-19T14:02:25.322Z,4.77
2023-03-19T14:03:28.991Z,4.93
2023-03-19T14:04:33.410Z,4.63
2023-03-19T14:05:36.300Z,4.67
2023-03-19T14:06:41.566Z,4.63
2023-03-19T14:07:46.943Z,4.30
2023-03-19T14:08:51.895Z,4.30
2023-03-19T14:10:05.049Z,4.83
2023-03-19T14:11:08.389Z,5.00
2023-03-19T14:12:33.162Z,4.90
2023-03-19T14:13:38.021Z,4.93
2023-03-19T14:14:42.524Z,5.00
2023-03-19T14:15:50.672Z,4.47
2023-03-19T14:16:53.429Z,5.13
2023-03-19T14:18:02.647Z,4.67
2023-03-19T14:19:13.325Z,5.23
2023-03-19T14:20:28.336Z,4.90
2023-03-19T14:21:46.534Z,4.80
2023-03-19T14:23:03.505Z,4.40